sensor_id;sensor_type;location;lat;lon;timestamp;pressure;altitude;pressure_sealevel;temperature;humidity
44839;BME280;30576;42.098;24.876;2023-03-01T00:02:03;100548.13;;;7.04;95.36
44839;BME280;30576;42.098;24.876;2023-03-01T00:04:30;100555.28;;;7.14;95.14
44839;BME280;30576;42.098;24.876;2023-03-01T00:06:55;100573.88;;;7.34;94.89
44839;BME280;30576;42.098;24.876;2023-03-01T00:09:20;100555.38;;;7.23;94.30
44839;BME280;30576;42.098;24.876;2023-03-01T00:11:46;100572.22;;;7.42;94.06
44839;BME280;30576;42.098;24.876;2023-03-01T00:14:11;100577.41;;;7.36;93.79
44839;BME280;30576;42.098;24.876;2023-03-01T00:16:39;100577.97;;;7.13;94.81
44839;BME280;30576;42.098;24.876;2023-03-01T00:19:10;100586.00;;;7.24;95.10
44839;BME280;30576;42.098;24.876;2023-03-01T00:21:36;100571.25;;;7.34;94.20
44839;BME280;30576;42.098;24.876;2023-03-01T00:24:02;100567.88;;;7.46;93.19
44839;BME280;30576;42.098;24.876;2023-03-01T00:26:28;100570.34;;;7.33;93.42
44839;BME280;30576;42.098;24.876;2023-03-01T00:28:54;100566.94;;;7.39;93.17
44839;BME280;30576;42.098;24.876;2023-03-01T00:31:25;100569.66;;;7.48;93.19
44839;BME280;30576;42.098;24.876;2023-03-01T00:33:56;100568.78;;;7.46;92.72
44839;BME280;30576;42.098;24.876;2023-03-01T00:36:23;100563.50;;;7.43;92.83
44839;BME280;30576;42.098;24.876;2023-03-01T00:38:50;100560.75;;;7.32;92.71
44839;BME280;30576;42.098;24.876;2023-03-01T00:41:16;100559.09;;;7.42;93.15
44839;BME280;30576;42.098;24.876;2023-03-01T00:43:42;100551.91;;;7.27;92.97
44839;BME280;30576;42.098;24.876;2023-03-01T00:46:14;100553.72;;;7.31;93.56
44839;BME280;30576;42.098;24.876;2023-03-01T00:48:40;100531.91;;;7.34;92.89
44839;BME280;30576;42.098;24.876;2023-03-01T00:51:07;100547.63;;;7.32;92.93
44839;BME280;30576;42.098;24.876;2023-03-01T00:53:33;100533.47;;;7.21;93.07
44839;BME280;30576;42.098;24.876;2023-03-01T00:55:58;100536.91;;;7.14;93.95
44839;BME280;30576;42.098;24.876;2023-03-01T00:58:24;100541.22;;;7.10;93.33
44839;BME280;30576;42.098;24.876;2023-03-01T01:00:49;100535.75;;;6.93;94.67
44839;BME280;30576;42.098;24.876;2023-03-01T01:03:15;100533.88;;;6.83;95.47
44839;BME280;30576;42.098;24.876;2023-03-01T01:05:40;100530.38;;;6.84;95.45
44839;BME280;30576;42.098;24.876;2023-03-01T01:08:05;100532.16;;;6.85;95.96
44839;BME280;30576;42.098;24.876;2023-03-01T01:10:34;100531.28;;;6.85;95.69
44839;BME280;30576;42.098;24.876;2023-03-01T01:12:59;100514.78;;;6.95;95.04
44839;BME280;30576;42.098;24.876;2023-03-01T01:15:24;100528.63;;;6.81;95.47
44839;BME280;30576;42.098;24.876;2023-03-01T01:17:50;100525.22;;;6.92;95.52
44839;BME280;30576;42.098;24.876;2023-03-01T01:20:15;100517.47;;;7.01;95.34
44839;BME280;30576;42.098;24.876;2023-03-01T01:22:41;100528.13;;;7.13;94.36
44839;BME280;30576;42.098;24.876;2023-03-01T01:25:06;100494.56;;;6.85;94.32
44839;BME280;30576;42.098;24.876;2023-03-01T01:27:32;100522.84;;;7.10;94.58
44839;BME280;30576;42.098;24.876;2023-03-01T01:29:57;100519.41;;;7.16;94.39
44839;BME280;30576;42.098;24.876;2023-03-01T01:32:22;100522.91;;;7.15;93.61
44839;BME280;30576;42.098;24.876;2023-03-01T01:34:48;100525.63;;;7.23;93.47
44839;BME280;30576;42.098;24.876;2023-03-01T01:37:13;100506.31;;;7.16;93.36
44839;BME280;30576;42.098;24.876;2023-03-01T01:39:39;100518.72;;;7.29;93.07
44839;BME280;30576;42.098;24.876;2023-03-01T01:42:04;100513.47;;;7.31;93.10
44839;BME280;30576;42.098;24.876;2023-03-01T01:44:30;100501.00;;;7.13;92.89
44839;BME280;30576;42.098;24.876;2023-03-01T01:46:59;100507.22;;;7.20;92.83
44839;BME280;30576;42.098;24.876;2023-03-01T01:52:12;100510.25;;;6.81;95.95
44839;BME280;30576;42.098;24.876;2023-03-01T01:57:14;100511.34;;;6.99;95.14
44839;BME280;30576;42.098;24.876;2023-03-01T01:59:43;100499.66;;;6.74;96.39
44839;BME280;30576;42.098;24.876;2023-03-01T02:02:11;100512.13;;;6.92;96.24
44839;BME280;30576;42.098;24.876;2023-03-01T02:04:37;100518.19;;;6.88;96.72
44839;BME280;30576;42.098;24.876;2023-03-01T02:07:10;100519.19;;;6.97;96.18
44839;BME280;30576;42.098;24.876;2023-03-01T02:09:39;100500.72;;;6.90;96.49
44839;BME280;30576;42.098;24.876;2023-03-01T02:12:06;100517.13;;;6.73;97.23
44839;BME280;30576;42.098;24.876;2023-03-01T02:14:32;100517.19;;;6.78;98.54
44839;BME280;30576;42.098;24.876;2023-03-01T02:16:57;100508.53;;;6.85;98.20
44839;BME280;30576;42.098;24.876;2023-03-01T02:19:36;100517.94;;;6.69;98.38
44839;BME280;30576;42.098;24.876;2023-03-01T02:22:25;100506.66;;;6.76;99.50
44839;BME280;30576;42.098;24.876;2023-03-01T02:27:38;100485.44;;;6.58;98.96
44839;BME280;30576;42.098;24.876;2023-03-01T02:30:07;100500.75;;;6.91;98.86
44839;BME280;30576;42.098;24.876;2023-03-01T02:32:33;100507.66;;;6.83;98.76
44839;BME280;30576;42.098;24.876;2023-03-01T02:34:59;100479.44;;;6.65;98.64
44839;BME280;30576;42.098;24.876;2023-03-01T02:37:25;100511.25;;;6.91;98.45
44839;BME280;30576;42.098;24.876;2023-03-01T02:40:01;100499.03;;;6.93;99.18
44839;BME280;30576;42.098;24.876;2023-03-01T02:42:33;100501.53;;;6.84;98.33
44839;BME280;30576;42.098;24.876;2023-03-01T02:45:01;100496.31;;;6.87;98.65
44839;BME280;30576;42.098;24.876;2023-03-01T02:47:26;100510.31;;;6.86;98.44
44839;BME280;30576;42.098;24.876;2023-03-01T02:49:52;100510.94;;;6.68;99.58
44839;BME280;30576;42.098;24.876;2023-03-01T02:55:12;100511.75;;;6.64;100.00
44839;BME280;30576;42.098;24.876;2023-03-01T02:57:41;100512.84;;;6.80;100.00
44839;BME280;30576;42.098;24.876;2023-03-01T03:00:16;100473.09;;;6.48;100.00
44839;BME280;30576;42.098;24.876;2023-03-01T03:02:47;100504.66;;;6.57;100.00
44839;BME280;30576;42.098;24.876;2023-03-01T03:05:21;100496.25;;;6.81;99.88
44839;BME280;30576;42.098;24.876;2023-03-01T03:07:48;100493.47;;;6.70;99.45
44839;BME280;30576;42.098;24.876;2023-03-01T03:10:28;100503.25;;;6.82;99.39
44839;BME280;30576;42.098;24.876;2023-03-01T03:12:56;100498.72;;;6.70;99.61
44839;BME280;30576;42.098;24.876;2023-03-01T03:15:23;100488.09;;;6.59;100.00
44839;BME280;30576;42.098;24.876;2023-03-01T03:17:49;100490.03;;;6.73;100.00
44839;BME280;30576;42.098;24.876;2023-03-01T03:20:18;100496.00;;;6.64;100.00
44839;BME280;30576;42.098;24.876;2023-03-01T03:22:49;100496.00;;;6.62;100.00
44839;BME280;30576;42.098;24.876;2023-03-01T03:25:15;100488.84;;;6.49;100.00
44839;BME280;30576;42.098;24.876;2023-03-01T03:27:42;100495.94;;;6.59;100.00
44839;BME280;30576;42.098;24.876;2023-03-01T03:30:10;100475.66;;;6.44;100.00
44839;BME280;30576;42.098;24.876;2023-03-01T03:32:41;100504.66;;;6.57;100.00
44839;BME280;30576;42.098;24.876;2023-03-01T03:35:08;100495.06;;;6.57;100.00
44839;BME280;30576;42.098;24.876;2023-03-01T03:37:38;100468.06;;;6.65;99.68
44839;BME280;30576;42.098;24.876;2023-03-01T03:40:22;100497.72;;;6.60;99.65
44839;BME280;30576;42.098;24.876;2023-03-01T03:42:48;100501.19;;;6.59;100.00
44839;BME280;30576;42.098;24.876;2023-03-01T03:45:15;100496.81;;;6.58;100.00
44839;BME280;30576;42.098;24.876;2023-03-01T03:47:41;100478.59;;;6.68;100.00
44839;BME280;30576;42.098;24.876;2023-03-01T03:50:07;100491.56;;;6.57;100.00
44839;BME280;30576;42.098;24.876;2023-03-01T03:52:33;100474.75;;;6.42;100.00
44839;BME280;30576;42.098;24.876;2023-03-01T03:54:58;100480.06;;;6.49;100.00
44839;BME280;30576;42.098;24.876;2023-03-01T03:57:24;100486.22;;;6.49;100.00
44839;BME280;30576;42.098;24.876;2023-03-01T03:59:49;100471.19;;;6.37;100.00
44839;BME280;30576;42.098;24.876;2023-03-01T04:02:14;100486.13;;;6.43;100.00
44839;BME280;30576;42.098;24.876;2023-03-01T04:04:49;100493.13;;;6.45;100.00
44839;BME280;30576;42.098;24.876;2023-03-01T04:07:16;100486.03;;;6.37;100.00
44839;BME280;30576;42.098;24.876;2023-03-01T04:09:42;100492.97;;;6.35;100.00
44839;BME280;30576;42.098;24.876;2023-03-01T04:12:08;100482.28;;;6.21;100.00
44839;BME280;30576;42.098;24.876;2023-03-01T04:14:34;100486.78;;;6.30;100.00
44839;BME280;30576;42.098;24.876;2023-03-01T04:16:59;100489.34;;;6.25;100.00
44839;BME280;30576;42.098;24.876;2023-03-01T04:19:25;100496.47;;;6.34;100.00
44839;BME280;30576;42.098;24.876;2023-03-01T04:21:52;100490.50;;;6.45;100.00
44839;BME280;30576;42.098;24.876;2023-03-01T04:24:18;100489.38;;;6.26;100.00
44839;BME280;30576;42.098;24.876;2023-03-01T04:26:43;100491.97;;;6.25;100.00
44839;BME280;30576;42.098;24.876;2023-03-01T04:29:08;100494.84;;;6.42;100.00
44839;BME280;30576;42.098;24.876;2023-03-01T04:31:34;100483.38;;;6.35;100.00
44839;BME280;30576;42.098;24.876;2023-03-01T04:33:59;100489.53;;;6.37;100.00
44839;BME280;30576;42.098;24.876;2023-03-01T04:36:26;100490.47;;;6.44;100.00
44839;BME280;30576;42.098;24.876;2023-03-01T04:38:52;100494.84;;;6.42;100.00
44839;BME280;30576;42.098;24.876;2023-03-01T04:41:18;100504.50;;;6.46;100.00
44839;BME280;30576;42.098;24.876;2023-03-01T04:43:44;100494.19;;;6.57;100.00
44839;BME280;30576;42.098;24.876;2023-03-01T04:46:15;100499.28;;;6.48;100.00
44839;BME280;30576;42.098;24.876;2023-03-01T04:48:42;100501.16;;;6.56;100.00
44839;BME280;30576;42.098;24.876;2023-03-01T04:51:08;100489.78;;;6.56;100.00
44839;BME280;30576;42.098;24.876;2023-03-01T04:53:34;100506.66;;;6.75;100.00
44839;BME280;30576;42.098;24.876;2023-03-01T04:56:02;100472.28;;;6.55;100.00
44839;BME280;30576;42.098;24.876;2023-03-01T04:58:28;100486.16;;;6.46;100.00
44839;BME280;30576;42.098;24.876;2023-03-01T05:00:54;100499.38;;;6.52;100.00
44839;BME280;30576;42.098;24.876;2023-03-01T05:03:19;100494.22;;;6.58;100.00
44839;BME280;30576;42.098;24.876;2023-03-01T05:05:47;100495.88;;;6.55;100.00
44839;BME280;30576;42.098;24.876;2023-03-01T05:08:14;100487.81;;;6.41;100.00
44839;BME280;30576;42.098;24.876;2023-03-01T05:10:47;100490.66;;;6.56;100.00
44839;BME280;30576;42.098;24.876;2023-03-01T05:13:14;100499.06;;;6.32;100.00
44839;BME280;30576;42.098;24.876;2023-03-01T05:15:45;100472.78;;;6.26;100.00
44839;BME280;30576;42.098;24.876;2023-03-01T05:18:11;100503.66;;;6.49;100.00
44839;BME280;30576;42.098;24.876;2023-03-01T05:20:37;100496.66;;;6.46;100.00
44839;BME280;30576;42.098;24.876;2023-03-01T05:23:03;100487.94;;;6.50;100.00
44839;BME280;30576;42.098;24.876;2023-03-01T05:25:31;100482.50;;;6.35;100.00
44839;BME280;30576;42.098;24.876;2023-03-01T05:28:02;100478.28;;;6.44;100.00
44839;BME280;30576;42.098;24.876;2023-03-01T05:30:31;100477.13;;;6.27;100.00
44839;BME280;30576;42.098;24.876;2023-03-01T05:32:56;100487.63;;;6.28;100.00
44839;BME280;30576;42.098;24.876;2023-03-01T05:35:22;100501.91;;;6.48;100.00
44839;BME280;30576;42.098;24.876;2023-03-01T05:37:48;100508.34;;;6.70;100.00
44839;BME280;30576;42.098;24.876;2023-03-01T05:40:22;100503.13;;;6.73;100.00
44839;BME280;30576;42.098;24.876;2023-03-01T05:42:52;100507.50;;;6.72;100.00
44839;BME280;30576;42.098;24.876;2023-03-01T05:45:20;100516.13;;;6.63;100.00
44839;BME280;30576;42.098;24.876;2023-03-01T05:47:48;100520.28;;;6.49;100.00
44839;BME280;30576;42.098;24.876;2023-03-01T05:50:20;100502.53;;;6.31;100.00
44839;BME280;30576;42.098;24.876;2023-03-01T05:52:56;100511.53;;;6.50;100.00
44839;BME280;30576;42.098;24.876;2023-03-01T05:55:22;100490.59;;;6.52;100.00
44839;BME280;30576;42.098;24.876;2023-03-01T05:57:47;100517.88;;;6.65;100.00
44839;BME280;30576;42.098;24.876;2023-03-01T06:00:19;100514.13;;;6.47;100.00
44839;BME280;30576;42.098;24.876;2023-03-01T06:02:47;100526.50;;;6.56;100.00
44839;BME280;30576;42.098;24.876;2023-03-01T06:05:13;100533.66;;;6.66;100.00
44839;BME280;30576;42.098;24.876;2023-03-01T06:07:39;100519.28;;;6.42;100.00
44839;BME280;30576;42.098;24.876;2023-03-01T06:10:06;100506.09;;;6.36;100.00
44839;BME280;30576;42.098;24.876;2023-03-01T06:12:33;100505.34;;;6.43;100.00
44839;BME280;30576;42.098;24.876;2023-03-01T06:14:59;100506.94;;;6.34;100.00
44839;BME280;30576;42.098;24.876;2023-03-01T06:17:25;100530.06;;;6.61;100.00
44839;BME280;30576;42.098;24.876;2023-03-01T06:19:50;100495.56;;;6.33;100.00
44839;BME280;30576;42.098;24.876;2023-03-01T06:22:15;100530.88;;;6.55;100.00
44839;BME280;30576;42.098;24.876;2023-03-01T06:24:41;100526.25;;;6.40;100.00
44839;BME280;30576;42.098;24.876;2023-03-01T06:27:06;100531.97;;;6.73;100.00
44839;BME280;30576;42.098;24.876;2023-03-01T06:29:31;100523.19;;;6.68;100.00
44839;BME280;30576;42.098;24.876;2023-03-01T06:31:57;100519.41;;;6.50;100.00
44839;BME280;30576;42.098;24.876;2023-03-01T06:34:22;100530.19;;;6.72;100.00
44839;BME280;30576;42.098;24.876;2023-03-01T06:36:48;100511.59;;;6.53;100.00
44839;BME280;30576;42.098;24.876;2023-03-01T06:39:13;100532.88;;;6.75;100.00
44839;BME280;30576;42.098;24.876;2023-03-01T06:41:38;100524.09;;;6.71;100.00
44839;BME280;30576;42.098;24.876;2023-03-01T06:44:04;100532.88;;;6.76;100.00
44839;BME280;30576;42.098;24.876;2023-03-01T06:46:30;100526.34;;;6.45;100.00
44839;BME280;30576;42.098;24.876;2023-03-01T06:48:56;100527.38;;;6.58;100.00
44839;BME280;30576;42.098;24.876;2023-03-01T06:51:21;100538.91;;;6.68;100.00
44839;BME280;30576;42.098;24.876;2023-03-01T06:53:47;100515.16;;;6.57;100.00
44839;BME280;30576;42.098;24.876;2023-03-01T06:56:12;100531.69;;;6.53;100.00
44839;BME280;30576;42.098;24.876;2023-03-01T06:58:37;100531.97;;;6.73;100.00
44839;BME280;30576;42.098;24.876;2023-03-01T07:01:09;100544.19;;;6.71;100.00
44839;BME280;30576;42.098;24.876;2023-03-01T07:03:35;100500.34;;;6.60;100.00
44839;BME280;30576;42.098;24.876;2023-03-01T07:06:00;100538.22;;;6.82;100.00
44839;BME280;30576;42.098;24.876;2023-03-01T07:08:25;100497.81;;;6.67;100.00
44839;BME280;30576;42.098;24.876;2023-03-01T07:10:59;100540.97;;;6.92;100.00
44839;BME280;30576;42.098;24.876;2023-03-01T07:13:27;100542.00;;;7.03;100.00
44839;BME280;30576;42.098;24.876;2023-03-01T07:15:52;100515.78;;;7.05;99.12
44839;BME280;30576;42.098;24.876;2023-03-01T07:18:18;100540.16;;;6.96;99.80
44839;BME280;30576;42.098;24.876;2023-03-01T07:20:43;100550.66;;;6.96;99.70
44839;BME280;30576;42.098;24.876;2023-03-01T07:23:08;100545.31;;;6.88;99.72
44839;BME280;30576;42.098;24.876;2023-03-01T07:25:34;100541.88;;;6.94;99.01
44839;BME280;30576;42.098;24.876;2023-03-01T07:27:59;100549.09;;;7.12;98.72
44839;BME280;30576;42.098;24.876;2023-03-01T07:30:25;100522.97;;;7.21;98.43
44839;BME280;30576;42.098;24.876;2023-03-01T07:32:52;100522.16;;;7.25;97.65
44839;BME280;30576;42.098;24.876;2023-03-01T07:35:18;100530.22;;;7.41;97.98
44839;BME280;30576;42.098;24.876;2023-03-01T07:37:43;100513.66;;;7.48;97.05
44839;BME280;30576;42.098;24.876;2023-03-01T07:40:09;100530.41;;;7.61;96.61
44839;BME280;30576;42.098;24.876;2023-03-01T07:42:35;100519.81;;;7.51;96.78
44839;BME280;30576;42.098;24.876;2023-03-01T07:45:00;100520.69;;;7.52;96.24
44839;BME280;30576;42.098;24.876;2023-03-01T07:47:25;100522.38;;;7.44;97.11
44839;BME280;30576;42.098;24.876;2023-03-01T07:49:51;100501.16;;;7.25;96.50
44839;BME280;30576;42.098;24.876;2023-03-01T07:52:16;100526.56;;;7.26;97.36
44839;BME280;30576;42.098;24.876;2023-03-01T07:54:44;100525.69;;;7.30;96.95
44839;BME280;30576;42.098;24.876;2023-03-01T07:57:10;100512.47;;;7.21;97.64
44839;BME280;30576;42.098;24.876;2023-03-01T07:59:35;100514.47;;;7.41;97.28
44839;BME280;30576;42.098;24.876;2023-03-01T08:02:01;100505.69;;;7.37;96.91
44839;BME280;30576;42.098;24.876;2023-03-01T08:04:26;100525.03;;;7.47;95.82
44839;BME280;30576;42.098;24.876;2023-03-01T08:06:54;100507.25;;;7.24;96.52
44839;BME280;30576;42.098;24.876;2023-03-01T08:09:20;100507.25;;;7.24;97.12
44839;BME280;30576;42.098;24.876;2023-03-01T08:11:45;100522.19;;;7.28;96.11
44839;BME280;30576;42.098;24.876;2023-03-01T08:14:11;100488.63;;;7.03;97.20
44839;BME280;30576;42.098;24.876;2023-03-01T08:16:36;100523.00;;;7.23;96.97
44839;BME280;30576;42.098;24.876;2023-03-01T08:19:10;100504.78;;;7.37;96.60
44839;BME280;30576;42.098;24.876;2023-03-01T08:21:36;100516.94;;;7.28;97.08
44839;BME280;30576;42.098;24.876;2023-03-01T08:24:02;100517.66;;;7.16;97.70
44839;BME280;30576;42.098;24.876;2023-03-01T08:26:28;100518.53;;;7.14;97.79
44839;BME280;30576;42.098;24.876;2023-03-01T08:28:53;100516.19;;;7.39;97.94
44839;BME280;30576;42.098;24.876;2023-03-01T08:33:47;100499.50;;;7.35;97.83
44839;BME280;30576;42.098;24.876;2023-03-01T08:36:24;100512.56;;;7.29;97.42
44839;BME280;30576;42.098;24.876;2023-03-01T08:38:50;100490.47;;;7.10;98.31
44839;BME280;30576;42.098;24.876;2023-03-01T08:41:15;100516.19;;;7.39;98.24
44839;BME280;30576;42.098;24.876;2023-03-01T08:43:41;100489.63;;;7.11;98.82
44839;BME280;30576;42.098;24.876;2023-03-01T08:46:06;100506.56;;;7.39;99.36
44839;BME280;30576;42.098;24.876;2023-03-01T08:48:32;100503.06;;;7.39;98.70
44839;BME280;30576;42.098;24.876;2023-03-01T08:51:06;100516.16;;;7.35;98.82
44839;BME280;30576;42.098;24.876;2023-03-01T08:53:31;100505.63;;;7.32;98.26
44839;BME280;30576;42.098;24.876;2023-03-01T08:55:59;100518.78;;;7.35;98.06
44839;BME280;30576;42.098;24.876;2023-03-01T08:58:24;100507.31;;;7.29;98.10
44839;BME280;30576;42.098;24.876;2023-03-01T09:00:50;100510.22;;;7.53;98.15
44839;BME280;30576;42.098;24.876;2023-03-01T09:03:15;100513.53;;;7.35;97.59
44839;BME280;30576;42.098;24.876;2023-03-01T09:05:42;100512.63;;;7.33;98.05
44839;BME280;30576;42.098;24.876;2023-03-01T09:08:08;100517.13;;;7.44;98.36
44839;BME280;30576;42.098;24.876;2023-03-01T09:10:37;100489.97;;;7.40;98.41
44839;BME280;30576;42.098;24.876;2023-03-01T09:13:03;100476.78;;;7.34;98.63
44839;BME280;30576;42.098;24.876;2023-03-01T09:15:28;100512.09;;;7.65;98.48
44839;BME280;30576;42.098;24.876;2023-03-01T09:17:53;100514.88;;;7.81;98.11
44839;BME280;30576;42.098;24.876;2023-03-01T09:20:19;100497.34;;;7.83;97.61
44839;BME280;30576;42.098;24.876;2023-03-01T09:22:44;100513.91;;;7.73;98.20
44839;BME280;30576;42.098;24.876;2023-03-01T09:25:09;100515.63;;;7.70;97.48
44839;BME280;30576;42.098;24.876;2023-03-01T09:27:35;100487.47;;;7.52;97.65
44839;BME280;30576;42.098;24.876;2023-03-01T09:30:00;100515.56;;;7.63;97.52
44839;BME280;30576;42.098;24.876;2023-03-01T09:32:25;100499.78;;;7.61;97.68
44839;BME280;30576;42.098;24.876;2023-03-01T09:34:51;100509.63;;;7.82;97.38
44839;BME280;30576;42.098;24.876;2023-03-01T09:37:33;100473.44;;;7.52;97.37
44839;BME280;30576;42.098;24.876;2023-03-01T09:39:59;100483.97;;;7.57;97.44
44839;BME280;30576;42.098;24.876;2023-03-01T09:42:24;100510.25;;;7.58;98.02
44839;BME280;30576;42.098;24.876;2023-03-01T09:45:06;100509.38;;;7.56;98.59
44839;BME280;30576;42.098;24.876;2023-03-01T09:47:36;100489.06;;;7.40;98.97
44839;BME280;30576;42.098;24.876;2023-03-01T09:52:40;100507.44;;;7.40;98.74
44839;BME280;30576;42.098;24.876;2023-03-01T09:55:34;100500.50;;;7.43;99.82
44839;BME280;30576;42.098;24.876;2023-03-01T10:00:42;100491.69;;;7.41;99.46
44839;BME280;30576;42.098;24.876;2023-03-01T10:05:43;100488.19;;;7.38;98.98
44839;BME280;30576;42.098;24.876;2023-03-01T10:08:28;100483.28;;;7.75;99.56
44839;BME280;30576;42.098;24.876;2023-03-01T10:10:57;100475.63;;;7.99;98.31
44839;BME280;30576;42.098;24.876;2023-03-01T10:13:52;100482.50;;;7.85;97.41
44839;BME280;30576;42.098;24.876;2023-03-01T10:19:12;100493.66;;;7.59;98.69
44839;BME280;30576;42.098;24.876;2023-03-01T10:21:44;100486.38;;;7.35;99.52
44839;BME280;30576;42.098;24.876;2023-03-01T10:24:14;100485.31;;;7.16;100.00
44839;BME280;30576;42.098;24.876;2023-03-01T10:27:02;100458.22;;;7.17;100.00
44839;BME280;30576;42.098;24.876;2023-03-01T10:29:48;100476.91;;;7.46;100.00
44839;BME280;30576;42.098;24.876;2023-03-01T10:32:18;100447.66;;;7.12;100.00
44839;BME280;30576;42.098;24.876;2023-03-01T10:34:43;100454.78;;;7.26;100.00
44839;BME280;30576;42.098;24.876;2023-03-01T10:39:34;100433.09;;;7.42;100.00
44839;BME280;30576;42.098;24.876;2023-03-01T10:42:02;100469.06;;;7.49;100.00
44839;BME280;30576;42.098;24.876;2023-03-01T10:44:46;100478.47;;;7.32;100.00
44839;BME280;30576;42.098;24.876;2023-03-01T10:52:33;100471.47;;;7.28;100.00
44839;BME280;30576;42.098;24.876;2023-03-01T10:55:03;100447.53;;;7.00;100.00
44839;BME280;30576;42.098;24.876;2023-03-01T10:57:34;100472.28;;;7.25;100.00
44839;BME280;30576;42.098;24.876;2023-03-01T11:02:50;100458.44;;;7.39;100.00
44839;BME280;30576;42.098;24.876;2023-03-01T11:05:23;100422.31;;;7.14;100.00
44839;BME280;30576;42.098;24.876;2023-03-01T11:07:56;100451.44;;;7.39;100.00
44839;BME280;30576;42.098;24.876;2023-03-01T11:10:28;100441.16;;;7.61;100.00
44839;BME280;30576;42.098;24.876;2023-03-01T11:13:07;100403.25;;;7.32;100.00
44839;BME280;30576;42.098;24.876;2023-03-01T11:15:33;100406.72;;;7.30;100.00
44839;BME280;30576;42.098;24.876;2023-03-01T11:17:59;100419.97;;;7.44;100.00
44839;BME280;30576;42.098;24.876;2023-03-01T11:20:36;100404.91;;;7.24;100.00
44839;BME280;30576;42.098;24.876;2023-03-01T11:23:05;100423.56;;;7.53;100.00
44839;BME280;30576;42.098;24.876;2023-03-01T11:25:39;100402.56;;;7.53;100.00
44839;BME280;30576;42.098;24.876;2023-03-01T11:28:12;100414.16;;;7.76;100.00
44839;BME280;30576;42.098;24.876;2023-03-01T11:30:53;100422.66;;;7.50;98.30
44839;BME280;30576;42.098;24.876;2023-03-01T11:33:41;100416.59;;;7.54;98.08
44839;BME280;30576;42.098;24.876;2023-03-01T11:38:55;100404.19;;;7.39;97.79
44839;BME280;30576;42.098;24.876;2023-03-01T11:41:25;100385.81;;;7.38;97.70
44839;BME280;30576;42.098;24.876;2023-03-01T11:43:55;100392.91;;;7.48;98.18
44839;BME280;30576;42.098;24.876;2023-03-01T11:54:31;100394.59;;;7.43;96.96
44839;BME280;30576;42.098;24.876;2023-03-01T12:02:45;100380.78;;;7.64;98.03
44839;BME280;30576;42.098;24.876;2023-03-01T12:13:51;100384.19;;;7.55;96.40
44839;BME280;30576;42.098;24.876;2023-03-01T12:22:42;100368.25;;;7.33;96.22
44839;BME280;30576;42.098;24.876;2023-03-01T12:27:50;100380.59;;;7.44;97.29
44839;BME280;30576;42.098;24.876;2023-03-01T12:33:25;100371.22;;;7.74;98.68
44839;BME280;30576;42.098;24.876;2023-03-01T12:44:55;100354.44;;;7.55;96.02
44839;BME280;30576;42.098;24.876;2023-03-01T12:53:03;100349.09;;;7.42;98.03
44839;BME280;30576;42.098;24.876;2023-03-01T12:55:29;100353.47;;;7.40;97.91
44839;BME280;30576;42.098;24.876;2023-03-01T12:58:04;100353.41;;;7.34;98.44
44839;BME280;30576;42.098;24.876;2023-03-01T13:06:53;100346.66;;;7.67;98.08
44839;BME280;30576;42.098;24.876;2023-03-01T13:11:48;100355.38;;;7.63;97.43
44839;BME280;30576;42.098;24.876;2023-03-01T13:16:45;100334.25;;;7.46;97.64
44839;BME280;30576;42.098;24.876;2023-03-01T13:19:22;100335.03;;;7.32;97.71
44839;BME280;30576;42.098;24.876;2023-03-01T13:21:49;100329.75;;;7.28;97.77
44839;BME280;30576;42.098;24.876;2023-03-01T13:24:38;100349.06;;;7.38;97.71
44839;BME280;30576;42.098;24.876;2023-03-01T13:27:11;100342.97;;;7.40;97.58
44839;BME280;30576;42.098;24.876;2023-03-01T13:29:57;100343.84;;;7.44;97.78
44839;BME280;30576;42.098;24.876;2023-03-01T13:32:35;100342.28;;;7.70;97.61
44839;BME280;30576;42.098;24.876;2023-03-01T13:37:37;100350.16;;;7.67;96.05
44839;BME280;30576;42.098;24.876;2023-03-01T13:40:56;100350.19;;;7.70;95.50
44839;BME280;30576;42.098;24.876;2023-03-01T13:42:54;100348.47;;;7.73;96.19
44839;BME280;30576;42.098;24.876;2023-03-01T13:45:32;100351.84;;;7.56;97.08
44839;BME280;30576;42.098;24.876;2023-03-01T13:48:03;100327.28;;;7.48;97.41
44839;BME280;30576;42.098;24.876;2023-03-01T13:50:38;100343.97;;;7.59;97.17
44839;BME280;30576;42.098;24.876;2023-03-01T13:53:14;100361.53;;;7.63;97.12
44839;BME280;30576;42.098;24.876;2023-03-01T13:55:47;100348.31;;;7.54;97.57
44839;BME280;30576;42.098;24.876;2023-03-01T13:58:26;100360.72;;;7.75;98.13
44839;BME280;30576;42.098;24.876;2023-03-01T14:01:04;100342.28;;;7.70;97.75
44839;BME280;30576;42.098;24.876;2023-03-01T14:03:31;100344.03;;;7.68;98.25
44839;BME280;30576;42.098;24.876;2023-03-01T14:06:08;100357.94;;;7.57;98.17
44839;BME280;30576;42.098;24.876;2023-03-01T14:08:37;100300.78;;;7.17;98.64
44839;BME280;30576;42.098;24.876;2023-03-01T14:14:37;100347.28;;;7.37;100.00
44839;BME280;30576;42.098;24.876;2023-03-01T14:20:09;100328.94;;;7.41;100.00
44839;BME280;30576;42.098;24.876;2023-03-01T14:22:42;100317.50;;;7.30;99.15
44839;BME280;30576;42.098;24.876;2023-03-01T14:25:24;100319.19;;;7.23;100.00
44839;BME280;30576;42.098;24.876;2023-03-01T14:27:54;100323.59;;;7.27;100.00
44839;BME280;30576;42.098;24.876;2023-03-01T14:30:27;100330.63;;;7.30;99.43
44839;BME280;30576;42.098;24.876;2023-03-01T14:33:02;100345.66;;;7.49;99.47
44839;BME280;30576;42.098;24.876;2023-03-01T14:35:31;100340.34;;;7.42;99.21
44839;BME280;30576;42.098;24.876;2023-03-01T14:37:57;100325.44;;;7.38;98.38
44839;BME280;30576;42.098;24.876;2023-03-01T14:42:56;100312.34;;;7.41;98.70